sensor_id;sensor_type;location;lat;lon;timestamp;temperature;humidity
62589;DHT22;58504;48.770;9.148;2023-04-30T00:01:20;20.30;57.70
62589;DHT22;58504;48.770;9.148;2023-04-30T00:03:46;20.40;57.70
62589;DHT22;58504;48.770;9.148;2023-04-30T00:06:13;20.30;57.60
62589;DHT22;58504;48.770;9.148;2023-04-30T00:08:40;20.30;57.60
62589;DHT22;58504;48.770;9.148;2023-04-30T00:11:08;20.30;57.60
62589;DHT22;58504;48.770;9.148;2023-04-30T00:13:35;20.30;57.60
62589;DHT22;58504;48.770;9.148;2023-04-30T00:16:02;20.30;57.60
62589;DHT22;58504;48.770;9.148;2023-04-30T00:18:28;20.30;57.60
62589;DHT22;58504;48.770;9.148;2023-04-30T00:20:55;20.30;57.60
62589;DHT22;58504;48.770;9.148;2023-04-30T00:23:22;20.30;57.60
62589;DHT22;58504;48.770;9.148;2023-04-30T00:25:48;20.30;57.60
62589;DHT22;58504;48.770;9.148;2023-04-30T00:28:17;20.30;57.60
62589;DHT22;58504;48.770;9.148;2023-04-30T00:30:46;20.30;57.60
62589;DHT22;58504;48.770;9.148;2023-04-30T00:33:12;20.30;57.60
62589;DHT22;58504;48.770;9.148;2023-04-30T00:35:40;20.30;57.60
62589;DHT22;58504;48.770;9.148;2023-04-30T00:38:07;20.30;57.60
62589;DHT22;58504;48.770;9.148;2023-04-30T00:40:34;20.30;57.60
62589;DHT22;58504;48.770;9.148;2023-04-30T00:43:01;20.30;57.50
62589;DHT22;58504;48.770;9.148;2023-04-30T00:45:29;20.20;57.40
62589;DHT22;58504;48.770;9.148;2023-04-30T00:47:55;20.20;57.40
62589;DHT22;58504;48.770;9.148;2023-04-30T00:50:22;20.20;57.40
62589;DHT22;58504;48.770;9.148;2023-04-30T00:52:49;20.20;57.40
62589;DHT22;58504;48.770;9.148;2023-04-30T00:55:17;20.20;57.30
62589;DHT22;58504;48.770;9.148;2023-04-30T00:57:44;20.20;57.30
62589;DHT22;58504;48.770;9.148;2023-04-30T01:00:12;20.20;57.80
62589;DHT22;58504;48.770;9.148;2023-04-30T01:02:40;20.30;57.40
62589;DHT22;58504;48.770;9.148;2023-04-30T01:05:07;20.20;57.30
62589;DHT22;58504;48.770;9.148;2023-04-30T01:07:35;20.20;57.30
62589;DHT22;58504;48.770;9.148;2023-04-30T01:10:03;20.20;57.30
62589;DHT22;58504;48.770;9.148;2023-04-30T01:12:37;20.20;57.30
62589;DHT22;58504;48.770;9.148;2023-04-30T01:15:09;20.20;57.30
62589;DHT22;58504;48.770;9.148;2023-04-30T01:17:44;20.20;57.30
62589;DHT22;58504;48.770;9.148;2023-04-30T01:20:14;20.20;57.20
62589;DHT22;58504;48.770;9.148;2023-04-30T01:22:46;20.20;57.20
62589;DHT22;58504;48.770;9.148;2023-04-30T01:25:41;20.20;57.20
62589;DHT22;58504;48.770;9.148;2023-04-30T01:28:13;20.20;57.20
62589;DHT22;58504;48.770;9.148;2023-04-30T01:30:41;20.20;57.20
62589;DHT22;58504;48.770;9.148;2023-04-30T01:33:09;20.20;57.20
62589;DHT22;58504;48.770;9.148;2023-04-30T01:36:01;20.20;57.20
62589;DHT22;58504;48.770;9.148;2023-04-30T01:38:56;20.20;57.20
62589;DHT22;58504;48.770;9.148;2023-04-30T01:41:31;20.20;57.20
62589;DHT22;58504;48.770;9.148;2023-04-30T01:44:11;20.10;57.10
62589;DHT22;58504;48.770;9.148;2023-04-30T01:46:48;20.10;57.10
62589;DHT22;58504;48.770;9.148;2023-04-30T01:49:21;20.10;57.00
62589;DHT22;58504;48.770;9.148;2023-04-30T01:51:57;20.10;57.00
62589;DHT22;58504;48.770;9.148;2023-04-30T01:54:29;20.10;57.10
62589;DHT22;58504;48.770;9.148;2023-04-30T01:57:01;20.10;57.20
62589;DHT22;58504;48.770;9.148;2023-04-30T01:59:31;20.10;57.20
62589;DHT22;58504;48.770;9.148;2023-04-30T02:01:58;20.10;57.20
62589;DHT22;58504;48.770;9.148;2023-04-30T02:04:25;20.10;57.20
62589;DHT22;58504;48.770;9.148;2023-04-30T02:06:52;20.10;57.20
62589;DHT22;58504;48.770;9.148;2023-04-30T02:09:19;20.10;57.10
62589;DHT22;58504;48.770;9.148;2023-04-30T02:11:48;20.10;57.10
62589;DHT22;58504;48.770;9.148;2023-04-30T02:14:15;20.10;57.10
62589;DHT22;58504;48.770;9.148;2023-04-30T02:16:43;20.10;57.10
62589;DHT22;58504;48.770;9.148;2023-04-30T02:19:10;20.10;57.10
62589;DHT22;58504;48.770;9.148;2023-04-30T02:21:37;20.10;57.00
62589;DHT22;58504;48.770;9.148;2023-04-30T02:24:04;20.00;56.90
62589;DHT22;58504;48.770;9.148;2023-04-30T02:26:31;20.00;56.90
62589;DHT22;58504;48.770;9.148;2023-04-30T02:28:58;20.00;56.90
62589;DHT22;58504;48.770;9.148;2023-04-30T02:31:24;20.00;56.90
62589;DHT22;58504;48.770;9.148;2023-04-30T02:33:52;20.00;56.90
62589;DHT22;58504;48.770;9.148;2023-04-30T02:36:19;20.00;56.90
62589;DHT22;58504;48.770;9.148;2023-04-30T02:38:46;20.00;56.90
62589;DHT22;58504;48.770;9.148;2023-04-30T02:41:12;20.00;56.90
62589;DHT22;58504;48.770;9.148;2023-04-30T02:43:39;20.00;56.90
62589;DHT22;58504;48.770;9.148;2023-04-30T02:46:06;20.00;56.90
62589;DHT22;58504;48.770;9.148;2023-04-30T02:48:33;20.00;56.90
62589;DHT22;58504;48.770;9.148;2023-04-30T02:51:01;20.00;56.90
62589;DHT22;58504;48.770;9.148;2023-04-30T02:53:29;20.00;56.90
62589;DHT22;58504;48.770;9.148;2023-04-30T02:55:55;20.00;56.90
62589;DHT22;58504;48.770;9.148;2023-04-30T02:58:23;20.00;56.90
62589;DHT22;58504;48.770;9.148;2023-04-30T03:00:51;20.00;56.90
62589;DHT22;58504;48.770;9.148;2023-04-30T03:03:17;20.00;56.90
62589;DHT22;58504;48.770;9.148;2023-04-30T03:05:44;20.00;56.80
62589;DHT22;58504;48.770;9.148;2023-04-30T03:08:12;20.00;56.90
62589;DHT22;58504;48.770;9.148;2023-04-30T03:10:39;20.00;56.80
62589;DHT22;58504;48.770;9.148;2023-04-30T03:13:05;19.90;56.70
62589;DHT22;58504;48.770;9.148;2023-04-30T03:15:32;19.90;56.70
62589;DHT22;58504;48.770;9.148;2023-04-30T03:17:59;19.90;56.70
62589;DHT22;58504;48.770;9.148;2023-04-30T03:20:26;19.90;56.70
62589;DHT22;58504;48.770;9.148;2023-04-30T03:22:52;19.90;56.70
62589;DHT22;58504;48.770;9.148;2023-04-30T03:25:20;19.90;56.70
62589;DHT22;58504;48.770;9.148;2023-04-30T03:27:47;19.90;56.80
62589;DHT22;58504;48.770;9.148;2023-04-30T03:30:14;19.90;56.70
62589;DHT22;58504;48.770;9.148;2023-04-30T03:32:40;19.90;56.70
62589;DHT22;58504;48.770;9.148;2023-04-30T03:35:08;19.90;56.70
62589;DHT22;58504;48.770;9.148;2023-04-30T03:37:34;19.90;56.70
62589;DHT22;58504;48.770;9.148;2023-04-30T03:40:01;19.90;56.70
62589;DHT22;58504;48.770;9.148;2023-04-30T03:42:30;19.90;56.60
62589;DHT22;58504;48.770;9.148;2023-04-30T03:44:57;19.90;56.60
62589;DHT22;58504;48.770;9.148;2023-04-30T03:47:23;19.90;56.60
62589;DHT22;58504;48.770;9.148;2023-04-30T03:49:50;19.90;56.60
62589;DHT22;58504;48.770;9.148;2023-04-30T03:52:19;19.90;56.60
62589;DHT22;58504;48.770;9.148;2023-04-30T03:54:46;19.90;56.60
62589;DHT22;58504;48.770;9.148;2023-04-30T03:57:13;19.90;56.60
62589;DHT22;58504;48.770;9.148;2023-04-30T03:59:41;19.90;56.60
62589;DHT22;58504;48.770;9.148;2023-04-30T04:02:08;19.90;56.60
62589;DHT22;58504;48.770;9.148;2023-04-30T04:04:35;19.90;56.60
62589;DHT22;58504;48.770;9.148;2023-04-30T04:07:01;19.90;56.70
62589;DHT22;58504;48.770;9.148;2023-04-30T04:09:28;19.90;56.60
62589;DHT22;58504;48.770;9.148;2023-04-30T04:11:55;19.90;56.60
62589;DHT22;58504;48.770;9.148;2023-04-30T04:14:22;19.90;56.60
62589;DHT22;58504;48.770;9.148;2023-04-30T04:16:50;19.90;56.50
62589;DHT22;58504;48.770;9.148;2023-04-30T04:19:17;19.90;56.50
62589;DHT22;58504;48.770;9.148;2023-04-30T04:21:44;19.80;56.50
62589;DHT22;58504;48.770;9.148;2023-04-30T04:24:11;19.80;56.50
62589;DHT22;58504;48.770;9.148;2023-04-30T04:26:37;19.80;56.40
62589;DHT22;58504;48.770;9.148;2023-04-30T04:29:04;19.80;56.40
62589;DHT22;58504;48.770;9.148;2023-04-30T04:31:33;19.80;56.40
62589;DHT22;58504;48.770;9.148;2023-04-30T04:34:02;19.80;56.40
62589;DHT22;58504;48.770;9.148;2023-04-30T04:36:30;19.80;56.40
62589;DHT22;58504;48.770;9.148;2023-04-30T04:38:58;19.80;56.40
62589;DHT22;58504;48.770;9.148;2023-04-30T04:41:26;19.80;56.40
62589;DHT22;58504;48.770;9.148;2023-04-30T04:43:53;19.80;56.40
62589;DHT22;58504;48.770;9.148;2023-04-30T04:46:20;19.80;56.40
62589;DHT22;58504;48.770;9.148;2023-04-30T04:48:47;19.90;56.40
62589;DHT22;58504;48.770;9.148;2023-04-30T04:51:16;19.90;56.40
62589;DHT22;58504;48.770;9.148;2023-04-30T04:53:42;19.90;56.30
62589;DHT22;58504;48.770;9.148;2023-04-30T04:56:09;19.90;56.30
62589;DHT22;58504;48.770;9.148;2023-04-30T04:58:36;19.90;56.30
62589;DHT22;58504;48.770;9.148;2023-04-30T05:01:03;19.90;56.30
62589;DHT22;58504;48.770;9.148;2023-04-30T05:03:31;19.90;56.30
62589;DHT22;58504;48.770;9.148;2023-04-30T05:05:58;19.90;56.30
62589;DHT22;58504;48.770;9.148;2023-04-30T05:08:26;20.00;56.30
62589;DHT22;58504;48.770;9.148;2023-04-30T05:10:52;20.00;56.30
62589;DHT22;58504;48.770;9.148;2023-04-30T05:13:19;20.00;56.20
62589;DHT22;58504;48.770;9.148;2023-04-30T05:15:48;20.00;56.20
62589;DHT22;58504;48.770;9.148;2023-04-30T05:18:15;20.10;56.20
62589;DHT22;58504;48.770;9.148;2023-04-30T05:20:42;20.10;56.20
62589;DHT22;58504;48.770;9.148;2023-04-30T05:23:09;20.10;56.10
62589;DHT22;58504;48.770;9.148;2023-04-30T05:25:37;20.10;56.00
62589;DHT22;58504;48.770;9.148;2023-04-30T05:28:04;20.10;56.10
62589;DHT22;58504;48.770;9.148;2023-04-30T05:30:31;20.10;56.00
62589;DHT22;58504;48.770;9.148;2023-04-30T05:32:58;20.20;56.10
62589;DHT22;58504;48.770;9.148;2023-04-30T05:35:25;20.20;56.00
62589;DHT22;58504;48.770;9.148;2023-04-30T05:37:51;20.20;55.90
62589;DHT22;58504;48.770;9.148;2023-04-30T05:40:18;20.20;55.90
62589;DHT22;58504;48.770;9.148;2023-04-30T05:42:46;20.20;55.90
62589;DHT22;58504;48.770;9.148;2023-04-30T05:45:13;20.20;55.90
62589;DHT22;58504;48.770;9.148;2023-04-30T05:47:41;20.20;55.90
62589;DHT22;58504;48.770;9.148;2023-04-30T05:50:08;20.20;55.90
62589;DHT22;58504;48.770;9.148;2023-04-30T05:52:35;20.20;55.80
62589;DHT22;58504;48.770;9.148;2023-04-30T05:55:02;20.30;55.80
62589;DHT22;58504;48.770;9.148;2023-04-30T05:57:29;20.30;55.70
62589;DHT22;58504;48.770;9.148;2023-04-30T05:59:57;20.30;55.60
62589;DHT22;58504;48.770;9.148;2023-04-30T06:02:24;20.40;55.60
62589;DHT22;58504;48.770;9.148;2023-04-30T06:04:51;20.50;55.60
62589;DHT22;58504;48.770;9.148;2023-04-30T06:07:17;20.40;55.40
62589;DHT22;58504;48.770;9.148;2023-04-30T06:09:44;20.50;55.40
62589;DHT22;58504;48.770;9.148;2023-04-30T06:12:11;20.50;55.20
62589;DHT22;58504;48.770;9.148;2023-04-30T06:14:38;20.50;55.10
62589;DHT22;58504;48.770;9.148;2023-04-30T06:17:11;20.60;55.70
62589;DHT22;58504;48.770;9.148;2023-04-30T06:19:38;20.60;55.00
62589;DHT22;58504;48.770;9.148;2023-04-30T06:22:04;20.60;55.00
62589;DHT22;58504;48.770;9.148;2023-04-30T06:24:31;20.60;54.90
62589;DHT22;58504;48.770;9.148;2023-04-30T06:26:58;20.70;54.80
62589;DHT22;58504;48.770;9.148;2023-04-30T06:29:25;20.70;54.90
62589;DHT22;58504;48.770;9.148;2023-04-30T06:31:52;20.70;54.90
62589;DHT22;58504;48.770;9.148;2023-04-30T06:34:20;20.80;54.80
62589;DHT22;58504;48.770;9.148;2023-04-30T06:36:47;20.80;54.60
62589;DHT22;58504;48.770;9.148;2023-04-30T06:39:14;20.80;54.50
62589;DHT22;58504;48.770;9.148;2023-04-30T06:41:41;20.90;54.60
62589;DHT22;58504;48.770;9.148;2023-04-30T06:44:08;20.90;54.50
62589;DHT22;58504;48.770;9.148;2023-04-30T06:46:35;21.00;54.60
62589;DHT22;58504;48.770;9.148;2023-04-30T06:49:02;21.00;54.30
62589;DHT22;58504;48.770;9.148;2023-04-30T06:51:30;21.00;54.20
62589;DHT22;58504;48.770;9.148;2023-04-30T06:53:56;21.00;54.20
62589;DHT22;58504;48.770;9.148;2023-04-30T06:56:23;21.00;54.10
62589;DHT22;58504;48.770;9.148;2023-04-30T06:58:50;21.10;54.20
62589;DHT22;58504;48.770;9.148;2023-04-30T07:01:16;21.10;54.00
62589;DHT22;58504;48.770;9.148;2023-04-30T07:03:43;21.20;54.00
62589;DHT22;58504;48.770;9.148;2023-04-30T07:06:10;21.30;54.00
62589;DHT22;58504;48.770;9.148;2023-04-30T07:08:38;21.30;54.00
62589;DHT22;58504;48.770;9.148;2023-04-30T07:11:05;21.40;53.90
62589;DHT22;58504;48.770;9.148;2023-04-30T07:13:32;21.50;53.60
62589;DHT22;58504;48.770;9.148;2023-04-30T07:15:59;21.60;53.40
62589;DHT22;58504;48.770;9.148;2023-04-30T07:18:25;21.80;53.20
62589;DHT22;58504;48.770;9.148;2023-04-30T07:20:52;22.00;52.90
62589;DHT22;58504;48.770;9.148;2023-04-30T07:23:19;22.20;52.60
62589;DHT22;58504;48.770;9.148;2023-04-30T07:25:47;22.30;52.10
62589;DHT22;58504;48.770;9.148;2023-04-30T07:28:14;22.40;51.70
62589;DHT22;58504;48.770;9.148;2023-04-30T07:30:41;22.50;51.40
62589;DHT22;58504;48.770;9.148;2023-04-30T07:33:07;22.60;51.80
62589;DHT22;58504;48.770;9.148;2023-04-30T07:35:34;22.70;51.10
62589;DHT22;58504;48.770;9.148;2023-04-30T07:38:01;22.70;50.70
62589;DHT22;58504;48.770;9.148;2023-04-30T07:40:29;22.80;50.60
62589;DHT22;58504;48.770;9.148;2023-04-30T07:42:57;22.80;50.30
62589;DHT22;58504;48.770;9.148;2023-04-30T07:45:24;22.90;50.10
62589;DHT22;58504;48.770;9.148;2023-04-30T07:47:50;23.00;50.10
62589;DHT22;58504;48.770;9.148;2023-04-30T07:50:17;23.10;50.60
62589;DHT22;58504;48.770;9.148;2023-04-30T07:52:44;23.30;49.90
62589;DHT22;58504;48.770;9.148;2023-04-30T07:55:11;23.50;49.50
62589;DHT22;58504;48.770;9.148;2023-04-30T07:57:38;23.50;49.10
62589;DHT22;58504;48.770;9.148;2023-04-30T08:00:08;23.60;49.00
62589;DHT22;58504;48.770;9.148;2023-04-30T08:02:34;23.60;48.90
62589;DHT22;58504;48.770;9.148;2023-04-30T08:05:02;23.70;48.70
62589;DHT22;58504;48.770;9.148;2023-04-30T08:07:30;23.80;48.50
62589;DHT22;58504;48.770;9.148;2023-04-30T08:09:56;24.00;48.30
62589;DHT22;58504;48.770;9.148;2023-04-30T08:12:23;24.00;48.10
62589;DHT22;58504;48.770;9.148;2023-04-30T08:14:58;24.20;47.90
62589;DHT22;58504;48.770;9.148;2023-04-30T08:17:27;24.30;47.40
62589;DHT22;58504;48.770;9.148;2023-04-30T08:19:53;24.60;46.90
62589;DHT22;58504;48.770;9.148;2023-04-30T08:22:21;24.90;46.20
62589;DHT22;58504;48.770;9.148;2023-04-30T08:24:47;25.40;45.40
62589;DHT22;58504;48.770;9.148;2023-04-30T08:27:14;25.80;44.60
62589;DHT22;58504;48.770;9.148;2023-04-30T08:29:41;26.10;43.80
62589;DHT22;58504;48.770;9.148;2023-04-30T08:32:08;26.20;43.40
62589;DHT22;58504;48.770;9.148;2023-04-30T08:34:36;26.10;43.50
62589;DHT22;58504;48.770;9.148;2023-04-30T08:37:05;26.20;43.30
62589;DHT22;58504;48.770;9.148;2023-04-30T08:39:32;26.00;43.20
62589;DHT22;58504;48.770;9.148;2023-04-30T08:42:01;25.60;43.70
62589;DHT22;58504;48.770;9.148;2023-04-30T08:44:29;25.40;44.20
62589;DHT22;58504;48.770;9.148;2023-04-30T08:46:56;25.10;44.80
62589;DHT22;58504;48.770;9.148;2023-04-30T08:49:23;24.70;45.50
62589;DHT22;58504;48.770;9.148;2023-04-30T08:51:53;24.40;46.10
62589;DHT22;58504;48.770;9.148;2023-04-30T08:54:19;24.10;46.80
62589;DHT22;58504;48.770;9.148;2023-04-30T08:56:47;23.80;47.10
62589;DHT22;58504;48.770;9.148;2023-04-30T08:59:14;23.70;47.40
62589;DHT22;58504;48.770;9.148;2023-04-30T09:01:41;23.50;47.50
62589;DHT22;58504;48.770;9.148;2023-04-30T09:04:07;23.70;47.80
62589;DHT22;58504;48.770;9.148;2023-04-30T09:06:34;24.00;47.50
62589;DHT22;58504;48.770;9.148;2023-04-30T09:09:09;24.30;46.90
62589;DHT22;58504;48.770;9.148;2023-04-30T09:11:36;24.50;46.20
62589;DHT22;58504;48.770;9.148;2023-04-30T09:14:03;24.70;45.80
62589;DHT22;58504;48.770;9.148;2023-04-30T09:16:44;24.90;45.60
62589;DHT22;58504;48.770;9.148;2023-04-30T09:19:25;24.90;44.20
62589;DHT22;58504;48.770;9.148;2023-04-30T09:21:51;24.80;40.10
62589;DHT22;58504;48.770;9.148;2023-04-30T09:24:20;24.60;39.30
62589;DHT22;58504;48.770;9.148;2023-04-30T09:26:47;24.40;39.70
62589;DHT22;58504;48.770;9.148;2023-04-30T09:29:14;24.10;39.60
62589;DHT22;58504;48.770;9.148;2023-04-30T09:31:42;23.80;40.30
62589;DHT22;58504;48.770;9.148;2023-04-30T09:34:10;23.50;41.20
62589;DHT22;58504;48.770;9.148;2023-04-30T09:36:37;23.30;41.70
62589;DHT22;58504;48.770;9.148;2023-04-30T09:39:16;23.10;39.50
62589;DHT22;58504;48.770;9.148;2023-04-30T09:41:44;22.90;40.20
62589;DHT22;58504;48.770;9.148;2023-04-30T09:44:27;22.70;41.30
62589;DHT22;58504;48.770;9.148;2023-04-30T09:46:55;22.50;41.10
62589;DHT22;58504;48.770;9.148;2023-04-30T09:49:22;22.30;40.60
62589;DHT22;58504;48.770;9.148;2023-04-30T09:51:53;22.20;41.20
62589;DHT22;58504;48.770;9.148;2023-04-30T09:54:22;22.10;41.00
62589;DHT22;58504;48.770;9.148;2023-04-30T09:56:53;22.00;42.40
62589;DHT22;58504;48.770;9.148;2023-04-30T09:59:21;21.90;44.40
62589;DHT22;58504;48.770;9.148;2023-04-30T10:01:50;21.80;45.50
62589;DHT22;58504;48.770;9.148;2023-04-30T10:04:18;21.80;46.30
62589;DHT22;58504;48.770;9.148;2023-04-30T10:06:47;21.80;47.00
62589;DHT22;58504;48.770;9.148;2023-04-30T10:09:15;21.70;47.40
62589;DHT22;58504;48.770;9.148;2023-04-30T10:11:42;21.70;47.70
62589;DHT22;58504;48.770;9.148;2023-04-30T10:14:12;21.70;47.90
62589;DHT22;58504;48.770;9.148;2023-04-30T10:16:43;21.70;48.20
62589;DHT22;58504;48.770;9.148;2023-04-30T10:19:16;21.70;48.40
62589;DHT22;58504;48.770;9.148;2023-04-30T10:21:45;21.60;48.50
62589;DHT22;58504;48.770;9.148;2023-04-30T10:24:13;21.70;48.60
62589;DHT22;58504;48.770;9.148;2023-04-30T10:26:44;21.60;48.50
62589;DHT22;58504;48.770;9.148;2023-04-30T10:29:14;21.60;48.60
62589;DHT22;58504;48.770;9.148;2023-04-30T10:31:44;21.60;48.70
62589;DHT22;58504;48.770;9.148;2023-04-30T10:34:17;21.60;48.60
62589;DHT22;58504;48.770;9.148;2023-04-30T10:36:49;21.70;48.70
62589;DHT22;58504;48.770;9.148;2023-04-30T10:39:18;21.70;48.90
62589;DHT22;58504;48.770;9.148;2023-04-30T10:41:46;21.70;49.10
62589;DHT22;58504;48.770;9.148;2023-04-30T10:44:20;21.70;49.10
62589;DHT22;58504;48.770;9.148;2023-04-30T10:46:47;21.60;49.10
62589;DHT22;58504;48.770;9.148;2023-04-30T10:49:14;21.70;49.20
62589;DHT22;58504;48.770;9.148;2023-04-30T10:51:44;21.60;49.10
62589;DHT22;58504;48.770;9.148;2023-04-30T10:54:14;21.60;49.10
62589;DHT22;58504;48.770;9.148;2023-04-30T10:56:44;21.60;49.30
62589;DHT22;58504;48.770;9.148;2023-04-30T10:59:10;21.60;49.30
62589;DHT22;58504;48.770;9.148;2023-04-30T11:01:54;21.60;49.40
62589;DHT22;58504;48.770;9.148;2023-04-30T11:04:22;21.60;49.20
62589;DHT22;58504;48.770;9.148;2023-04-30T11:06:55;21.60;49.10
62589;DHT22;58504;48.770;9.148;2023-04-30T11:09:35;21.60;49.20
62589;DHT22;58504;48.770;9.148;2023-04-30T11:12:03;21.60;49.30
62589;DHT22;58504;48.770;9.148;2023-04-30T11:14:31;21.60;49.40
62589;DHT22;58504;48.770;9.148;2023-04-30T11:17:00;21.60;49.50
62589;DHT22;58504;48.770;9.148;2023-04-30T11:19:27;21.70;49.70
62589;DHT22;58504;48.770;9.148;2023-04-30T11:22:17;21.70;49.70
62589;DHT22;58504;48.770;9.148;2023-04-30T11:27:36;21.70;49.70
62589;DHT22;58504;48.770;9.148;2023-04-30T11:30:11;21.70;49.70
62589;DHT22;58504;48.770;9.148;2023-04-30T11:32:42;21.70;49.50
62589;DHT22;58504;48.770;9.148;2023-04-30T11:35:10;21.60;49.50
62589;DHT22;58504;48.770;9.148;2023-04-30T11:37:39;21.70;49.60
62589;DHT22;58504;48.770;9.148;2023-04-30T11:40:09;21.60;49.80
62589;DHT22;58504;48.770;9.148;2023-04-30T11:42:36;21.60;49.80
62589;DHT22;58504;48.770;9.148;2023-04-30T11:45:05;21.70;50.10
62589;DHT22;58504;48.770;9.148;2023-04-30T11:47:44;21.60;50.30
62589;DHT22;58504;48.770;9.148;2023-04-30T11:50:13;21.70;50.50
62589;DHT22;58504;48.770;9.148;2023-04-30T11:52:41;21.70;50.40
62589;DHT22;58504;48.770;9.148;2023-04-30T11:55:12;21.60;50.40
62589;DHT22;58504;48.770;9.148;2023-04-30T11:57:41;21.60;50.60
62589;DHT22;58504;48.770;9.148;2023-04-30T12:00:12;21.70;50.70
62589;DHT22;58504;48.770;9.148;2023-04-30T12:02:39;21.60;50.80
62589;DHT22;58504;48.770;9.148;2023-04-30T12:05:13;21.60;50.80
62589;DHT22;58504;48.770;9.148;2023-04-30T12:07:45;21.60;50.80
62589;DHT22;58504;48.770;9.148;2023-04-30T12:10:13;21.70;50.90
62589;DHT22;58504;48.770;9.148;2023-04-30T12:12:42;21.70;50.80
62589;DHT22;58504;48.770;9.148;2023-04-30T12:15:13;21.70;50.80
62589;DHT22;58504;48.770;9.148;2023-04-30T12:17:40;21.70;50.80
62589;DHT22;58504;48.770;9.148;2023-04-30T12:20:08;21.70;50.70
62589;DHT22;58504;48.770;9.148;2023-04-30T12:22:37;21.70;50.80
62589;DHT22;58504;48.770;9.148;2023-04-30T12:25:08;21.70;50.80
62589;DHT22;58504;48.770;9.148;2023-04-30T12:27:38;21.70;50.80
62589;DHT22;58504;48.770;9.148;2023-04-30T12:30:06;21.70;50.60
62589;DHT22;58504;48.770;9.148;2023-04-30T12:32:41;21.70;50.50
62589;DHT22;58504;48.770;9.148;2023-04-30T12:35:12;21.70;50.70
62589;DHT22;58504;48.770;9.148;2023-04-30T12:37:42;21.70;51.00
62589;DHT22;58504;48.770;9.148;2023-04-30T12:40:10;21.70;51.10
62589;DHT22;58504;48.770;9.148;2023-04-30T12:42:38;21.70;51.40
62589;DHT22;58504;48.770;9.148;2023-04-30T12:45:06;21.70;51.50
62589;DHT22;58504;48.770;9.148;2023-04-30T12:47:37;21.60;51.50
62589;DHT22;58504;48.770;9.148;2023-04-30T12:50:08;21.60;51.80
62589;DHT22;58504;48.770;9.148;2023-04-30T12:52:36;21.60;52.00
62589;DHT22;58504;48.770;9.148;2023-04-30T12:55:18;21.60;51.70
62589;DHT22;58504;48.770;9.148;2023-04-30T12:58:05;21.60;51.80
62589;DHT22;58504;48.770;9.148;2023-04-30T13:00:45;21.60;51.30
62589;DHT22;58504;48.770;9.148;2023-04-30T13:03:12;21.60;51.40
62589;DHT22;58504;48.770;9.148;2023-04-30T13:05:40;21.70;51.60
62589;DHT22;58504;48.770;9.148;2023-04-30T13:08:07;21.70;51.90
62589;DHT22;58504;48.770;9.148;2023-04-30T13:10:35;21.70;51.90
62589;DHT22;58504;48.770;9.148;2023-04-30T13:13:02;21.70;51.80
62589;DHT22;58504;48.770;9.148;2023-04-30T13:15:29;21.80;52.10
62589;DHT22;58504;48.770;9.148;2023-04-30T13:17:55;22.00;52.10
62589;DHT22;58504;48.770;9.148;2023-04-30T13:20:22;22.10;52.00
62589;DHT22;58504;48.770;9.148;2023-04-30T13:22:51;22.30;51.70
62589;DHT22;58504;48.770;9.148;2023-04-30T13:25:18;22.40;51.40
62589;DHT22;58504;48.770;9.148;2023-04-30T13:27:46;22.50;51.30
62589;DHT22;58504;48.770;9.148;2023-04-30T13:30:13;22.50;51.20
62589;DHT22;58504;48.770;9.148;2023-04-30T13:32:40;22.50;51.00
62589;DHT22;58504;48.770;9.148;2023-04-30T13:35:08;22.60;50.90
62589;DHT22;58504;48.770;9.148;2023-04-30T13:37:36;22.70;51.20
62589;DHT22;58504;48.770;9.148;2023-04-30T13:40:03;22.70;50.50
62589;DHT22;58504;48.770;9.148;2023-04-30T13:42:30;22.70;50.30
62589;DHT22;58504;48.770;9.148;2023-04-30T13:44:59;22.70;50.40
62589;DHT22;58504;48.770;9.148;2023-04-30T13:47:26;22.60;50.50
62589;DHT22;58504;48.770;9.148;2023-04-30T13:49:52;22.60;50.60
62589;DHT22;58504;48.770;9.148;2023-04-30T13:52:19;22.50;50.70
62589;DHT22;58504;48.770;9.148;2023-04-30T13:54:46;22.50;50.80
62589;DHT22;58504;48.770;9.148;2023-04-30T13:57:13;22.50;50.80
62589;DHT22;58504;48.770;9.148;2023-04-30T13:59:39;22.50;51.00
62589;DHT22;58504;48.770;9.148;2023-04-30T14:02:07;22.40;50.70
62589;DHT22;58504;48.770;9.148;2023-04-30T14:04:34;22.40;50.70
62589;DHT22;58504;48.770;9.148;2023-04-30T14:07:01;22.40;50.60
62589;DHT22;58504;48.770;9.148;2023-04-30T14:09:28;22.40;50.50
62589;DHT22;58504;48.770;9.148;2023-04-30T14:11:55;22.30;50.60
62589;DHT22;58504;48.770;9.148;2023-04-30T14:14:23;22.30;50.70
62589;DHT22;58504;48.770;9.148;2023-04-30T14:16:50;22.30;50.90
62589;DHT22;58504;48.770;9.148;2023-04-30T14:19:18;22.20;51.00
62589;DHT22;58504;48.770;9.148;2023-04-30T14:21:45;22.20;51.10
62589;DHT22;58504;48.770;9.148;2023-04-30T14:24:12;22.20;51.00
62589;DHT22;58504;48.770;9.148;2023-04-30T14:26:41;22.10;51.10
62589;DHT22;58504;48.770;9.148;2023-04-30T14:29:08;22.10;51.10
62589;DHT22;58504;48.770;9.148;2023-04-30T14:31:35;22.10;51.20
62589;DHT22;58504;48.770;9.148;2023-04-30T14:34:01;22.10;51.20
62589;DHT22;58504;48.770;9.148;2023-04-30T14:36:30;22.00;51.40
62589;DHT22;58504;48.770;9.148;2023-04-30T14:38:56;22.00;51.50
62589;DHT22;58504;48.770;9.148;2023-04-30T14:41:23;22.00;51.40
62589;DHT22;58504;48.770;9.148;2023-04-30T14:43:50;22.00;51.30
62589;DHT22;58504;48.770;9.148;2023-04-30T14:46:18;22.00;51.10
62589;DHT22;58504;48.770;9.148;2023-04-30T14:48:44;22.00;51.10
62589;DHT22;58504;48.770;9.148;2023-04-30T14:51:11;22.00;50.90
62589;DHT22;58504;48.770;9.148;2023-04-30T14:53:39;22.00;50.90
62589;DHT22;58504;48.770;9.148;2023-04-30T14:56:06;22.00;51.10
62589;DHT22;58504;48.770;9.148;2023-04-30T14:58:33;22.00;51.30
62589;DHT22;58504;48.770;9.148;2023-04-30T15:01:00;22.00;51.10
62589;DHT22;58504;48.770;9.148;2023-04-30T15:03:26;22.00;51.00
62589;DHT22;58504;48.770;9.148;2023-04-30T15:05:53;22.00;51.30
62589;DHT22;58504;48.770;9.148;2023-04-30T15:08:20;22.00;51.50
62589;DHT22;58504;48.770;9.148;2023-04-30T15:10:48;22.00;51.90
62589;DHT22;58504;48.770;9.148;2023-04-30T15:13:15;21.90;52.20
62589;DHT22;58504;48.770;9.148;2023-04-30T15:15:42;21.90;52.30
62589;DHT22;58504;48.770;9.148;2023-04-30T15:18:11;21.90;52.40
62589;DHT22;58504;48.770;9.148;2023-04-30T15:20:38;21.90;52.50
62589;DHT22;58504;48.770;9.148;2023-04-30T15:23:05;21.90;52.20
62589;DHT22;58504;48.770;9.148;2023-04-30T15:25:32;21.90;52.30
62589;DHT22;58504;48.770;9.148;2023-04-30T15:28:01;21.90;52.50
62589;DHT22;58504;48.770;9.148;2023-04-30T15:30:27;21.80;52.20
62589;DHT22;58504;48.770;9.148;2023-04-30T15:32:54;21.80;52.30
62589;DHT22;58504;48.770;9.148;2023-04-30T15:35:21;21.90;52.50
62589;DHT22;58504;48.770;9.148;2023-04-30T15:37:48;21.80;52.60
62589;DHT22;58504;48.770;9.148;2023-04-30T15:40:15;21.80;52.80